createdAt,value
2023-03-23T00:00:27.258Z,11.03
2023-03-23T00:01:31.579Z,11.05
2023-03-23T00:02:44.089Z,11.05
2023-03-23T00:03:44.673Z,11.05
2023-03-23T00:04:49.022Z,11.06
2023-03-23T00:05:53.183Z,11.06
2023-03-23T00:06:57.544Z,11.06
2023-03-23T00:08:01.750Z,11.06
2023-03-23T00:09:06.013Z,11.06
2023-03-23T00:10:10.363Z,11.06
2023-03-23T00:11:14.669Z,11.05
2023-03-23T00:12:18.948Z,11.05
2023-03-23T00:13:23.148Z,11.05
2023-03-23T00:14:27.431Z,11.06
2023-03-23T00:15:31.797Z,11.06
2023-03-23T00:16:36.106Z,11.06
2023-03-23T00:17:40.412Z,11.07
2023-03-23T00:18:44.641Z,11.07
2023-03-23T00:19:49.033Z,11.07
2023-03-23T00:20:53.273Z,11.08
2023-03-23T00:21:57.647Z,11.08
2023-03-23T00:23:15.920Z,11.09
2023-03-23T00:24:19.235Z,11.09
2023-03-23T00:25:23.525Z,11.10
2023-03-23T00:26:27.773Z,11.10
2023-03-23T00:27:32.006Z,11.11
2023-03-23T00:28:36.308Z,11.11
2023-03-23T00:29:40.573Z,11.11
2023-03-23T00:30:44.842Z,11.12
2023-03-23T00:31:49.249Z,11.13
2023-03-23T00:32:53.437Z,11.16
2023-03-23T00:33:57.686Z,11.17
2023-03-23T00:35:02.110Z,11.18
2023-03-23T00:36:06.354Z,11.20
2023-03-23T00:37:10.707Z,11.24
2023-03-23T00:38:14.926Z,11.24
2023-03-23T00:39:19.165Z,11.26
2023-03-23T00:40:23.545Z,11.26
2023-03-23T00:41:27.717Z,11.29
2023-03-23T00:42:32.100Z,11.29
2023-03-23T00:43:36.349Z,11.28
2023-03-23T00:44:55.433Z,11.28
2023-03-23T00:45:57.852Z,11.28
2023-03-23T00:47:02.076Z,11.30
2023-03-23T00:48:06.352Z,11.32
2023-03-23T00:49:10.682Z,11.31
2023-03-23T00:50:14.841Z,11.31
2023-03-23T00:51:19.121Z,11.29
2023-03-23T00:52:23.495Z,11.28
2023-03-23T00:53:27.754Z,11.28
2023-03-23T00:54:31.946Z,11.27
2023-03-23T00:55:36.318Z,11.26
2023-03-23T00:56:40.524Z,11.28
2023-03-23T00:57:44.796Z,11.28
2023-03-23T00:58:49.069Z,11.28
2023-03-23T00:59:53.345Z,11.29
2023-03-23T01:00:57.584Z,11.29
2023-03-23T01:02:01.957Z,11.30
2023-03-23T01:03:06.171Z,11.31
2023-03-23T01:04:10.499Z,11.30
2023-03-23T01:05:14.756Z,11.30
2023-03-23T01:06:19.042Z,11.30
2023-03-23T01:07:23.317Z,11.31
2023-03-23T01:08:27.619Z,11.31
2023-03-23T01:09:31.846Z,11.31
2023-03-23T01:10:36.166Z,11.30
2023-03-23T01:11:40.409Z,11.30
2023-03-23T01:12:44.648Z,11.29
2023-03-23T01:13:49.007Z,11.30
2023-03-23T01:14:53.219Z,11.35
2023-03-23T01:15:57.437Z,11.37
2023-03-23T01:17:01.831Z,11.38
2023-03-23T01:18:06.007Z,11.40
2023-03-23T01:19:10.258Z,11.38
2023-03-23T01:20:14.540Z,11.37
2023-03-23T01:21:18.779Z,11.35
2023-03-23T01:22:23.058Z,11.34
2023-03-23T01:23:27.375Z,11.33
2023-03-23T01:24:31.708Z,11.32
2023-03-23T01:25:35.955Z,11.31
2023-03-23T01:26:40.192Z,11.30
2023-03-23T01:27:44.632Z,11.30
2023-03-23T01:28:48.774Z,11.30
2023-03-23T01:29:53.064Z,11.29
2023-03-23T01:30:57.359Z,11.29
2023-03-23T01:32:01.630Z,11.28
2023-03-23T01:33:05.897Z,11.28
2023-03-23T01:34:10.156Z,11.27
2023-03-23T01:35:14.521Z,11.27
2023-03-23T01:36:18.765Z,11.26
2023-03-23T01:37:23.162Z,11.26
2023-03-23T01:38:27.375Z,11.25
2023-03-23T01:39:31.708Z,11.24
2023-03-23T01:40:35.893Z,11.24
2023-03-23T01:41:40.166Z,11.23
2023-03-23T01:42:44.412Z,11.22
2023-03-23T01:43:48.685Z,11.22
2023-03-23T01:44:52.897Z,11.21
2023-03-23T01:45:57.237Z,11.20
2023-03-23T01:47:01.507Z,11.19
2023-03-23T01:48:05.762Z,11.18
2023-03-23T01:49:10.082Z,11.18
2023-03-23T01:50:14.418Z,11.17
2023-03-23T01:51:18.621Z,11.17
2023-03-23T01:52:22.921Z,11.16
2023-03-23T01:53:27.185Z,11.15
2023-03-23T01:54:31.502Z,11.14
2023-03-23T01:55:35.834Z,11.14
2023-03-23T01:56:40.196Z,11.13
2023-03-23T01:57:47.425Z,11.12
2023-03-23T01:58:50.883Z,11.12
2023-03-23T01:59:55.218Z,11.11
2023-03-23T02:00:59.458Z,11.11
2023-03-23T02:02:03.704Z,11.10
2023-03-23T02:03:07.954Z,11.10
2023-03-23T02:04:12.226Z,11.10
2023-03-23T02:05:16.518Z,11.09
2023-03-23T02:06:21.675Z,11.09
2023-03-23T02:07:25.609Z,11.08
2023-03-23T02:08:29.840Z,11.08
2023-03-23T02:09:34.105Z,11.08
2023-03-23T02:10:38.368Z,11.08
2023-03-23T02:11:42.669Z,11.07
2023-03-23T02:12:46.987Z,11.07
2023-03-23T02:13:51.160Z,11.07
2023-03-23T02:14:55.496Z,11.06
2023-03-23T02:15:59.798Z,11.06
2023-03-23T02:17:04.100Z,11.05
2023-03-23T02:18:08.316Z,11.05
2023-03-23T02:19:12.556Z,11.05
2023-03-23T02:20:16.840Z,11.04
2023-03-23T02:21:21.073Z,11.04
2023-03-23T02:22:25.344Z,11.03
2023-03-23T02:23:29.614Z,11.02
2023-03-23T02:24:33.975Z,11.02
2023-03-23T02:25:38.317Z,11.02
2023-03-23T02:26:42.588Z,11.02
2023-03-23T02:27:46.812Z,11.02
2023-03-23T02:28:51.073Z,11.01
2023-03-23T02:29:55.324Z,11.01
2023-03-23T02:30:59.613Z,11.00
2023-03-23T02:32:03.912Z,11.00
2023-03-23T02:33:08.266Z,10.99
2023-03-23T02:34:12.600Z,10.99
2023-03-23T02:35:16.863Z,10.98
2023-03-23T02:36:21.085Z,10.97
2023-03-23T02:37:25.319Z,10.97
2023-03-23T02:38:29.628Z,10.97
2023-03-23T02:39:33.980Z,10.96
2023-03-23T02:40:38.174Z,10.97
2023-03-23T02:41:42.427Z,10.96
2023-03-23T02:42:52.629Z,10.96
2023-03-23T02:43:55.497Z,10.96
2023-03-23T02:44:59.799Z,10.96
2023-03-23T02:46:04.047Z,10.96
2023-03-23T02:47:08.238Z,10.96
2023-03-23T02:48:12.543Z,10.96
2023-03-23T02:49:16.804Z,10.95
2023-03-23T02:50:21.049Z,10.94
2023-03-23T02:51:25.303Z,10.94
2023-03-23T02:52:29.526Z,10.94
2023-03-23T02:53:33.812Z,10.93
2023-03-23T02:54:38.169Z,10.93
2023-03-23T02:55:42.647Z,10.92
2023-03-23T02:56:46.702Z,10.91
2023-03-23T02:57:50.931Z,10.90
2023-03-23T02:58:55.358Z,10.89
2023-03-23T02:59:59.557Z,10.88
2023-03-23T03:01:03.832Z,10.87
2023-03-23T03:02:08.093Z,10.86
2023-03-23T03:03:12.365Z,10.86
2023-03-23T03:04:16.609Z,10.86
2023-03-23T03:05:20.816Z,10.86
2023-03-23T03:06:25.222Z,10.85
2023-03-23T03:07:29.430Z,10.84
2023-03-23T03:08:33.783Z,10.84
2023-03-23T03:09:38.037Z,10.84
2023-03-23T03:10:42.252Z,10.83
2023-03-23T03:11:46.652Z,10.83
2023-03-23T03:12:56.846Z,10.82
2023-03-23T03:13:59.820Z,10.82
2023-03-23T03:15:03.999Z,10.82
2023-03-23T03:16:08.107Z,10.82
2023-03-23T03:17:12.460Z,10.82
2023-03-23T03:18:16.757Z,10.82
2023-03-23T03:19:21.107Z,10.82
2023-03-23T03:20:25.310Z,10.82
2023-03-23T03:21:29.540Z,10.81
2023-03-23T03:22:33.898Z,10.80
2023-03-23T03:23:38.021Z,10.80
2023-03-23T03:24:42.448Z,10.79
2023-03-23T03:25:46.636Z,10.78
2023-03-23T03:26:50.903Z,10.78
2023-03-23T03:27:55.314Z,10.78
2023-03-23T03:28:59.399Z,10.79
2023-03-23T03:30:03.718Z,10.78
2023-03-23T03:31:08.090Z,10.77
2023-03-23T03:32:12.341Z,10.77
2023-03-23T03:33:16.730Z,10.76
2023-03-23T03:34:20.785Z,10.75
2023-03-23T03:35:25.076Z,10.75
2023-03-23T03:36:29.353Z,10.75
2023-03-23T03:37:33.712Z,10.75
2023-03-23T03:38:38.039Z,10.76
2023-03-23T03:39:42.229Z,10.76
2023-03-23T03:40:46.589Z,10.75
2023-03-23T03:41:50.845Z,10.76
2023-03-23T03:42:55.138Z,10.76
2023-03-23T03:43:59.424Z,10.76
2023-03-23T03:45:03.773Z,10.77
2023-03-23T03:46:08.079Z,10.78
2023-03-23T03:47:12.374Z,10.77
2023-03-23T03:48:16.584Z,10.77
2023-03-23T03:49:20.888Z,10.76
2023-03-23T03:50:39.229Z,10.76
2023-03-23T03:51:42.328Z,10.77
2023-03-23T03:52:46.590Z,10.77
2023-03-23T03:53:50.833Z,10.77
2023-03-23T03:54:55.107Z,10.77
2023-03-23T03:56:05.409Z,10.77
2023-03-23T03:57:08.248Z,10.76
2023-03-23T03:58:18.667Z,10.76
2023-03-23T03:59:23.154Z,10.75
2023-03-23T04:00:25.740Z,10.75
2023-03-23T04:01:30.038Z,10.75
2023-03-23T04:02:34.245Z,10.75
2023-03-23T04:03:38.521Z,10.74
2023-03-23T04:04:42.809Z,10.74
2023-03-23T04:05:47.070Z,10.74
2023-03-23T04:06:51.372Z,10.73
2023-03-23T04:07:55.541Z,10.74
2023-03-23T04:09:07.882Z,10.74
2023-03-23T04:10:04.118Z,10.73
2023-03-23T04:11:08.340Z,10.73
2023-03-23T04:12:12.588Z,10.73
2023-03-23T04:13:16.912Z,10.73
2023-03-23T04:14:21.136Z,10.72
2023-03-23T04:15:25.442Z,10.71
2023-03-23T04:16:29.708Z,10.70
2023-03-23T04:17:33.950Z,10.69
2023-03-23T04:18:38.229Z,10.68
2023-03-23T04:19:42.637Z,10.68
2023-03-23T04:20:46.746Z,10.67
2023-03-23T04:21:51.162Z,10.67
2023-03-23T04:22:55.446Z,10.66
2023-03-23T04:23:59.740Z,10.66
2023-03-23T04:25:03.969Z,10.66
2023-03-23T04:26:08.237Z,10.66
2023-03-23T04:27:12.471Z,10.66
2023-03-23T04:28:16.724Z,10.65
2023-03-23T04:29:21.020Z,10.65
2023-03-23T04:30:25.318Z,10.64
2023-03-23T04:31:29.527Z,10.65
2023-03-23T04:32:33.888Z,10.65
2023-03-23T04:33:57.650Z,10.64
2023-03-23T04:34:44.413Z,10.64
2023-03-23T04:35:48.742Z,10.64
2023-03-23T04:36:56.887Z,10.64
2023-03-23T04:37:57.310Z,10.64
2023-03-23T04:39:01.526Z,10.64
2023-03-23T04:40:05.805Z,10.65
2023-03-23T04:41:10.129Z,10.65
2023-03-23T04:42:14.447Z,10.65
2023-03-23T04:43:18.661Z,10.65
2023-03-23T04:44:22.957Z,10.65
2023-03-23T04:45:41.390Z,10.65
2023-03-23T04:46:44.425Z,10.65
2023-03-23T04:47:48.652Z,10.66
2023-03-23T04:48:52.954Z,10.66
2023-03-23T04:49:57.086Z,10.67
2023-03-23T04:51:01.362Z,10.68
2023-03-23T04:52:05.797Z,10.68
2023-03-23T04:53:12.970Z,10.68
2023-03-23T04:54:16.385Z,10.68
2023-03-23T04:55:20.712Z,10.69
2023-03-23T04:56:24.954Z,10.69
2023-03-23T04:57:29.175Z,10.69
2023-03-23T04:58:33.400Z,10.69
2023-03-23T04:59:37.767Z,10.69
2023-03-23T05:00:41.979Z,10.69
2023-03-23T05:01:46.232Z,10.69
2023-03-23T05:02:50.486Z,10.69
2023-03-23T05:03:54.756Z,10.70
2023-03-23T05:04:59.437Z,10.70
2023-03-23T05:06:03.377Z,10.70
2023-03-23T05:07:07.713Z,10.70
2023-03-23T05:08:11.973Z,10.70
2023-03-23T05:09:30.217Z,10.70
2023-03-23T05:10:33.640Z,10.71
2023-03-23T05:11:37.883Z,10.71
2023-03-23T05:12:42.028Z,10.72
2023-03-23T05:13:46.273Z,10.72
2023-03-23T05:14:50.487Z,10.72
2023-03-23T05:15:54.728Z,10.73
2023-03-23T05:16:58.971Z,10.73
2023-03-23T05:18:03.312Z,10.74
2023-03-23T05:19:07.493Z,10.74
2023-03-23T05:20:11.868Z,10.75
2023-03-23T05:21:16.008Z,10.75
2023-03-23T05:22:20.288Z,10.75
2023-03-23T05:23:24.530Z,10.76
2023-03-23T05:24:28.792Z,10.77
2023-03-23T05:25:33.104Z,10.77
2023-03-23T05:26:37.397Z,10.77
2023-03-23T05:27:41.616Z,10.77
2023-03-23T05:28:45.885Z,10.78
2023-03-23T05:29:50.267Z,10.79
2023-03-23T05:30:54.461Z,10.79
2023-03-23T05:31:58.667Z,10.80
2023-03-23T05:33:02.907Z,10.80
2023-03-23T05:34:07.071Z,10.81
2023-03-23T05:35:11.389Z,10.81
2023-03-23T05:36:15.665Z,10.81
2023-03-23T05:37:19.972Z,10.81
2023-03-23T05:38:24.307Z,10.82
2023-03-23T05:39:28.476Z,10.82
2023-03-23T05:40:32.705Z,10.82
2023-03-23T05:41:36.999Z,10.82
2023-03-23T05:42:41.242Z,10.83
2023-03-23T05:43:45.470Z,10.84
2023-03-23T05:44:49.714Z,10.84
2023-03-23T05:45:53.952Z,10.85
2023-03-23T05:46:58.221Z,10.85
2023-03-23T05:48:02.574Z,10.86
2023-03-23T05:49:06.780Z,10.87
2023-03-23T05:50:11.112Z,10.88
2023-03-23T05:51:15.322Z,10.89
2023-03-23T05:52:19.688Z,10.89
2023-03-23T05:53:23.890Z,10.90
2023-03-23T05:54:28.230Z,10.91
2023-03-23T05:55:32.504Z,10.91
2023-03-23T05:56:36.798Z,10.92
2023-03-23T05:57:41.055Z,10.92
2023-03-23T05:58:45.391Z,10.93
2023-03-23T05:59:49.573Z,10.94
2023-03-23T06:00:53.949Z,10.94
2023-03-23T06:01:58.166Z,10.95
2023-03-23T06:03:02.397Z,10.96
2023-03-23T06:04:06.656Z,10.97
2023-03-23T06:05:11.031Z,10.97
2023-03-23T06:06:29.268Z,10.98
2023-03-23T06:07:32.391Z,10.99
2023-03-23T06:08:36.531Z,11.00
2023-03-23T06:09:40.843Z,11.00
2023-03-23T06:10:45.162Z,11.01
2023-03-23T06:11:55.408Z,11.02
2023-03-23T06:12:58.281Z,11.02
2023-03-23T06:14:02.589Z,11.03
2023-03-23T06:15:06.760Z,11.03
2023-03-23T06:16:11.133Z,11.04
2023-03-23T06:17:15.321Z,11.04
2023-03-23T06:18:19.625Z,11.05
2023-03-23T06:19:23.865Z,11.05
2023-03-23T06:20:28.149Z,11.06
2023-03-23T06:21:32.376Z,11.06
2023-03-23T06:22:36.712Z,11.05
2023-03-23T06:23:41.009Z,11.06
2023-03-23T06:24:45.257Z,11.06
2023-03-23T06:25:49.520Z,11.07
2023-03-23T06:26:53.804Z,11.07
2023-03-23T06:27:58.071Z,11.08
2023-03-23T06:29:02.372Z,11.09
2023-03-23T06:30:06.609Z,11.09
2023-03-23T06:31:10.842Z,11.09
2023-03-23T06:32:15.108Z,11.10
2023-03-23T06:33:19.907Z,11.10
2023-03-23T06:34:23.572Z,11.11
2023-03-23T06:35:27.913Z,11.11
2023-03-23T06:36:32.148Z,11.11
2023-03-23T06:37:36.462Z,11.12
2023-03-23T06:38:40.802Z,11.12
2023-03-23T06:39:44.988Z,11.12
2023-03-23T06:40:49.261Z,11.13
2023-03-23T06:41:53.516Z,11.13
2023-03-23T06:42:57.768Z,11.13
2023-03-23T06:44:02.138Z,11.13
2023-03-23T06:45:06.339Z,11.13
2023-03-23T06:46:10.607Z,11.14
2023-03-23T06:47:14.874Z,11.14
2023-03-23T06:48:19.112Z,11.14
2023-03-23T06:49:23.471Z,11.15
2023-03-23T06:50:27.744Z,11.15
2023-03-23T06:51:31.992Z,11.16
2023-03-23T06:52:36.256Z,11.16
2023-03-23T06:53:40.512Z,11.17
2023-03-23T06:54:44.807Z,11.17
2023-03-23T06:55:49.008Z,11.18
2023-03-23T06:56:53.338Z,11.18
2023-03-23T06:57:57.615Z,11.18
2023-03-23T06:59:01.917Z,11.19
2023-03-23T07:00:06.539Z,11.20
2023-03-23T07:01:10.385Z,11.20
2023-03-23T07:02:14.768Z,11.21
2023-03-23T07:03:18.876Z,11.22
2023-03-23T07:04:23.225Z,11.22
2023-03-23T07:05:27.439Z,11.23
2023-03-23T07:06:31.778Z,11.24
2023-03-23T07:07:35.980Z,11.25
2023-03-23T07:08:40.211Z,11.26
2023-03-23T07:09:44.460Z,11.27
2023-03-23T07:10:48.833Z,11.28
2023-03-23T07:11:53.125Z,11.29
2023-03-23T07:12:57.333Z,11.30
2023-03-23T07:14:01.548Z,11.31
2023-03-23T07:15:05.834Z,11.32
2023-03-23T07:16:10.123Z,11.32
2023-03-23T07:17:14.355Z,11.33
2023-03-23T07:18:18.752Z,11.35
2023-03-23T07:19:23.060Z,11.36
2023-03-23T07:20:27.391Z,11.36
2023-03-23T07:21:31.876Z,11.37
2023-03-23T07:22:35.897Z,11.37
2023-03-23T07:23:40.112Z,11.37
2023-03-23T07:24:44.359Z,11.37
2023-03-23T07:25:48.715Z,11.38
2023-03-23T07:26:52.957Z,11.39
2023-03-23T07:27:57.220Z,11.39
2023-03-23T07:29:01.612Z,11.40
2023-03-23T07:30:05.877Z,11.42
2023-03-23T07:31:10.098Z,11.43
2023-03-23T07:32:14.431Z,11.44
2023-03-23T07:33:18.662Z,11.45
2023-03-23T07:34:22.902Z,11.47
2023-03-23T07:35:27.200Z,11.48
2023-03-23T07:36:32.387Z,11.49
2023-03-23T07:37:36.315Z,11.50
2023-03-23T07:38:40.552Z,11.52
2023-03-23T07:39:44.787Z,11.53
2023-03-23T07:40:49.014Z,11.54
2023-03-23T07:41:53.280Z,11.54
2023-03-23T07:42:57.520Z,11.54
2023-03-23T07:44:01.777Z,11.55
2023-03-23T07:45:06.071Z,11.56
2023-03-23T07:46:10.309Z,11.57
2023-03-23T07:47:14.597Z,11.57
2023-03-23T07:48:24.983Z,11.58
2023-03-23T07:49:27.805Z,11.58
2023-03-23T07:50:32.037Z,11.59
2023-03-23T07:51:36.427Z,11.61
2023-03-23T07:52:40.662Z,11.63
2023-03-23T07:53:44.942Z,11.65
2023-03-23T07:54:49.192Z,11.66
2023-03-23T07:55:53.492Z,11.68
2023-03-23T07:56:57.800Z,11.69
2023-03-23T07:58:02.076Z,11.71
2023-03-23T07:59:06.372Z,11.73
2023-03-23T08:00:10.703Z,11.75
2023-03-23T08:01:14.906Z,11.77
2023-03-23T08:02:22.220Z,11.79
2023-03-23T08:03:25.547Z,11.81
2023-03-23T08:04:29.830Z,11.83
2023-03-23T08:05:48.116Z,11.84
2023-03-23T08:06:51.419Z,11.86
2023-03-23T08:08:01.697Z,11.89
2023-03-23T08:09:04.621Z,11.91
2023-03-23T08:10:08.887Z,11.94
2023-03-23T08:11:13.129Z,11.95
2023-03-23T08:12:17.446Z,11.97
2023-03-23T08:13:35.823Z,11.99
2023-03-23T08:14:39.003Z,12.01
2023-03-23T08:15:43.458Z,12.04
2023-03-23T08:17:01.584Z,12.07
2023-03-23T08:18:04.809Z,12.11
2023-03-23T08:19:09.019Z,12.14
2023-03-23T08:20:13.380Z,12.17
2023-03-23T08:21:17.641Z,12.19
2023-03-23T08:22:22.002Z,12.21
2023-03-23T08:23:26.214Z,12.22
2023-03-23T08:24:30.572Z,12.22
2023-03-23T08:25:34.816Z,12.22
2023-03-23T08:26:39.241Z,12.21
2023-03-23T08:27:43.580Z,12.20
2023-03-23T08:28:47.791Z,12.20
2023-03-23T08:29:52.052Z,12.19
2023-03-23T08:30:56.366Z,12.18
2023-03-23T08:32:00.656Z,12.19
2023-03-23T08:33:05.019Z,12.19
2023-03-23T08:34:09.326Z,12.21
2023-03-23T08:35:13.665Z,12.21
2023-03-23T08:36:17.942Z,12.22
2023-03-23T08:37:22.167Z,12.24
2023-03-23T08:38:26.494Z,12.25
2023-03-23T08:39:30.874Z,12.26
2023-03-23T08:40:35.122Z,12.27
2023-03-23T08:41:39.381Z,12.28
2023-03-23T08:42:45.412Z,12.29
2023-03-23T08:43:47.903Z,12.28
2023-03-23T08:44:52.279Z,12.28
2023-03-23T08:45:56.492Z,12.28
2023-03-23T08:47:00.830Z,12.27
2023-03-23T08:48:05.161Z,12.27
2023-03-23T08:49:09.399Z,12.27
2023-03-23T08:50:13.747Z,12.28
2023-03-23T08:51:20.987Z,12.29
2023-03-23T08:52:24.379Z,12.29
2023-03-23T08:53:28.576Z,12.30
2023-03-23T08:54:32.821Z,12.31
2023-03-23T08:55:37.126Z,12.33
2023-03-23T08:56:41.388Z,12.35
2023-03-23T08:57:45.804Z,12.37
2023-03-23T08:58:49.923Z,12.38
2023-03-23T08:59:54.312Z,12.40
2023-03-23T09:00:58.615Z,12.43
2023-03-23T09:02:03.156Z,12.46
2023-03-23T09:03:07.238Z,12.49
2023-03-23T09:04:11.502Z,12.53
2023-03-23T09:05:15.767Z,12.57
2023-03-23T09:06:20.052Z,12.62
2023-03-23T09:07:24.373Z,12.66
2023-03-23T09:08:28.751Z,12.72
2023-03-23T09:09:32.965Z,12.79
2023-03-23T09:10:37.336Z,12.84
2023-03-23T09:11:41.669Z,12.89
2023-03-23T09:12:45.935Z,12.93
2023-03-23T09:13:50.196Z,12.97
2023-03-23T09:15:08.583Z,13.00
2023-03-23T09:16:11.954Z,13.02
2023-03-23T09:17:16.165Z,13.04
2023-03-23T09:18:20.389Z,13.06
2023-03-23T09:19:24.669Z,13.08
2023-03-23T09:20:28.939Z,13.10
2023-03-23T09:21:33.198Z,13.12
2023-03-23T09:22:37.500Z,13.13
2023-03-23T09:23:41.888Z,13.14
2023-03-23T09:24:46.104Z,13.17
2023-03-23T09:25:50.363Z,13.19
2023-03-23T09:26:54.728Z,13.21
2023-03-23T09:27:58.953Z,13.23
2023-03-23T09:29:03.207Z,13.26
2023-03-23T09:30:07.461Z,13.28
2023-03-23T09:31:11.856Z,13.31
2023-03-23T09:32:16.095Z,13.33
2023-03-23T09:33:23.454Z,13.34
2023-03-23T09:34:26.737Z,13.36
2023-03-23T09:35:31.052Z,13.36
2023-03-23T09:36:49.429Z,13.35
2023-03-23T09:37:52.461Z,13.34
2023-03-23T09:38:56.729Z,13.34
2023-03-23T09:40:06.682Z,13.33
2023-03-23T09:41:05.355Z,13.32
2023-03-23T09:42:09.657Z,13.32
2023-03-23T09:43:13.893Z,13.31
2023-03-23T09:44:18.216Z,13.30
2023-03-23T09:45:22.553Z,13.28
2023-03-23T09:46:26.829Z,13.26
2023-03-23T09:47:31.193Z,13.25
2023-03-23T09:48:49.553Z,13.25
2023-03-23T09:50:06.787Z,13.27
2023-03-23T09:51:10.084Z,13.30
2023-03-23T09:52:14.298Z,13.34
2023-03-23T09:53:19.600Z,13.39
2023-03-23T09:54:22.718Z,13.44
2023-03-23T09:55:26.890Z,13.48
2023-03-23T09:56:31.237Z,13.52
2023-03-23T09:57:35.633Z,13.55
2023-03-23T09:58:39.963Z,13.58
2023-03-23T09:59:47.345Z,13.60
2023-03-23T10:00:50.685Z,13.63
2023-03-23T10:01:54.949Z,13.66
2023-03-23T10:02:59.211Z,13.68
2023-03-23T10:04:03.544Z,13.69
2023-03-23T10:05:07.788Z,13.69
2023-03-23T10:06:12.180Z,13.69
2023-03-23T10:07:16.476Z,13.69
2023-03-23T10:08:20.752Z,13.70
2023-03-23T10:09:25.117Z,13.71
2023-03-23T10:10:29.467Z,13.71
2023-03-23T10:11:33.721Z,13.72
2023-03-23T10:12:37.973Z,13.69
2023-03-23T10:13:42.289Z,13.67
2023-03-23T10:14:46.572Z,13.64
2023-03-23T10:15:50.866Z,13.60
2023-03-23T10:16:58.261Z,13.56
2023-03-23T10:18:01.724Z,13.53
2023-03-23T10:19:06.087Z,13.49
2023-03-23T10:20:10.352Z,13.45
2023-03-23T10:21:14.731Z,13.42
2023-03-23T10:22:19.007Z,13.38
2023-03-23T10:23:23.284Z,13.36
2023-03-23T10:24:27.648Z,13.33
2023-03-23T10:25:32.006Z,13.31
2023-03-23T10:26:36.269Z,13.28
2023-03-23T10:27:40.537Z,13.25
2023-03-23T10:28:44.909Z,13.24
2023-03-23T10:29:49.252Z,13.22
2023-03-23T10:30:53.575Z,13.20
2023-03-23T10:31:57.799Z,13.19
2023-03-23T10:33:02.085Z,13.18
2023-03-23T10:34:06.364Z,13.17
2023-03-23T10:35:10.765Z,13.16
2023-03-23T10:36:15.015Z,13.16
2023-03-23T10:37:19.312Z,13.15
2023-03-23T10:38:23.620Z,13.14
2023-03-23T10:39:27.819Z,13.12
2023-03-23T10:40:32.189Z,13.09
2023-03-23T10:41:36.418Z,13.03
2023-03-23T10:42:40.734Z,12.93
2023-03-23T10:43:45.002Z,12.80
2023-03-23T10:44:49.350Z,12.65
2023-03-23T10:46:00.580Z,12.53
2023-03-23T10:46:57.889Z,12.41
2023-03-23T10:48:02.252Z,12.31
2023-03-23T10:49:06.544Z,12.21
2023-03-23T10:50:10.729Z,12.11
2023-03-23T10:51:15.142Z,12.04
2023-03-23T10:52:19.284Z,11.99
2023-03-23T10:53:23.550Z,11.98
2023-03-23T10:54:27.885Z,12.00
2023-03-23T10:55:32.097Z,12.02
2023-03-23T10:56:48.348Z,12.05
2023-03-23T10:57:40.632Z,12.10
2023-03-23T10:58:45.039Z,12.16
2023-03-23T10:59:49.288Z,12.20
2023-03-23T11:00:56.554Z,12.24
2023-03-23T11:02:00.033Z,12.27
2023-03-23T11:03:05.836Z,12.30
2023-03-23T11:04:08.640Z,12.34
2023-03-23T11:05:20.027Z,12.38
2023-03-23T11:06:17.160Z,12.43
2023-03-23T11:07:21.483Z,12.49
2023-03-23T11:08:25.769Z,12.55
2023-03-23T11:09:30.142Z,12.59
2023-03-23T11:10:48.932Z,12.64
2023-03-23T11:11:56.592Z,12.69
2023-03-23T11:12:56.556Z,12.73
2023-03-23T11:14:14.851Z,12.78
2023-03-23T11:15:18.242Z,12.84
2023-03-23T11:16:22.386Z,12.89
2023-03-23T11:17:26.760Z,12.93
2023-03-23T11:18:30.979Z,12.96
2023-03-23T11:19:35.292Z,12.99
2023-03-23T11:20:39.570Z,13.02
2023-03-23T11:21:43.867Z,13.06
2023-03-23T11:22:48.187Z,13.10
2023-03-23T11:24:00.583Z,13.14
2023-03-23T11:24:56.799Z,13.18
2023-03-23T11:26:01.082Z,13.19
2023-03-23T11:27:05.359Z,13.19
2023-03-23T11:28:09.758Z,13.19
2023-03-23T11:29:14.054Z,13.20
2023-03-23T11:30:18.301Z,13.21
2023-03-23T11:31:36.661Z,13.23
2023-03-23T11:32:39.841Z,13.24
2023-03-23T11:33:44.127Z,13.27
2023-03-23T11:34:48.460Z,13.29
2023-03-23T11:35:52.865Z,13.31
2023-03-23T11:36:59.010Z,13.32
2023-03-23T11:38:01.338Z,13.33
2023-03-23T11:39:05.618Z,13.34
2023-03-23T11:40:09.931Z,13.35
2023-03-23T11:41:14.242Z,13.36
2023-03-23T11:42:18.513Z,13.38
2023-03-23T11:43:22.825Z,13.39
2023-03-23T11:44:27.237Z,13.42
2023-03-23T11:45:34.476Z,13.45
2023-03-23T11:46:37.984Z,13.49
2023-03-23T11:47:42.216Z,13.50
2023-03-23T11:48:46.529Z,13.50
2023-03-23T11:49:50.811Z,13.50
2023-03-23T11:50:55.177Z,13.50
2023-03-23T11:51:59.444Z,13.50
2023-03-23T11:53:03.746Z,13.50
2023-03-23T11:54:08.060Z,13.52
2023-03-23T11:55:12.273Z,13.54
2023-03-23T11:56:16.572Z,13.56
2023-03-23T11:57:20.945Z,13.58
2023-03-23T11:58:25.287Z,13.59
2023-03-23T11:59:29.550Z,13.61
2023-03-23T12:00:33.931Z,13.60
2023-03-23T12:01:38.228Z,13.59
2023-03-23T12:02:42.547Z,13.57
2023-03-23T12:03:46.922Z,13.53
2023-03-23T12:04:51.137Z,13.54
2023-03-23T12:05:55.513Z,13.57
2023-03-23T12:06:59.788Z,13.59
2023-03-23T12:08:04.097Z,13.65
2023-03-23T12:09:08.506Z,13.68
2023-03-23T12:10:12.769Z,13.73
2023-03-23T12:11:17.156Z,13.75
2023-03-23T12:12:21.506Z,13.80
2023-03-23T12:13:25.721Z,13.83
2023-03-23T12:14:36.612Z,13.85
2023-03-23T12:15:34.435Z,13.86
2023-03-23T12:16:38.805Z,13.87
2023-03-23T12:17:43.188Z,13.89
2023-03-23T12:18:47.388Z,13.79
2023-03-23T12:19:51.823Z,13.72
2023-03-23T12:20:56.176Z,13.66
2023-03-23T12:22:00.490Z,13.57
2023-03-23T12:23:04.809Z,13.49
2023-03-23T12:24:09.146Z,13.43
2023-03-23T12:25:13.346Z,13.39
2023-03-23T12:26:17.656Z,13.36
2023-03-23T12:27:22.033Z,13.33
2023-03-23T12:28:26.373Z,13.31
2023-03-23T12:29:30.562Z,13.28
2023-03-23T12:30:34.956Z,13.29
2023-03-23T12:31:39.288Z,13.26
2023-03-23T12:32:43.559Z,13.24
2023-03-23T12:33:47.824Z,13.14
2023-03-23T12:34:52.233Z,13.03
2023-03-23T12:35:55.545Z,12.91
2023-03-23T12:37:13.812Z,12.88
2023-03-23T12:38:16.974Z,12.94
2023-03-23T12:39:21.240Z,12.95
2023-03-23T12:40:25.549Z,12.88
2023-03-23T12:41:29.963Z,12.88
2023-03-23T12:42:34.253Z,12.84
2023-03-23T12:43:38.567Z,12.84
2023-03-23T12:44:42.796Z,12.89
2023-03-23T12:45:47.234Z,12.87
2023-03-23T12:46:57.521Z,12.92
2023-03-23T12:48:00.386Z,12.94
2023-03-23T12:49:04.764Z,12.95
2023-03-23T12:50:08.104Z,12.90
2023-03-23T12:51:12.499Z,12.85
2023-03-23T12:52:16.851Z,12.77
2023-03-23T12:53:21.178Z,12.68
2023-03-23T12:54:25.502Z,12.55
2023-03-23T12:55:29.770Z,12.46
2023-03-23T12:56:34.177Z,12.42
2023-03-23T12:57:38.452Z,12.39
2023-03-23T12:58:42.774Z,12.35
2023-03-23T12:59:47.017Z,12.30
2023-03-23T13:01:05.459Z,12.31
2023-03-23T13:02:08.837Z,12.28
2023-03-23T13:03:13.097Z,12.32
2023-03-23T13:04:17.424Z,12.40
2023-03-23T13:05:21.711Z,12.48
2023-03-23T13:06:32.235Z,12.48
2023-03-23T13:07:30.268Z,12.55
2023-03-23T13:08:34.722Z,12.60
2023-03-23T13:09:39.027Z,12.63
2023-03-23T13:10:43.321Z,12.65
2023-03-23T13:11:47.727Z,12.69
2023-03-23T13:12:52.108Z,12.72
2023-03-23T13:13:56.232Z,12.75
2023-03-23T13:15:00.694Z,12.76
2023-03-23T13:16:05.073Z,12.71
2023-03-23T13:17:09.381Z,12.72
2023-03-23T13:18:16.595Z,12.75
2023-03-23T13:19:20.031Z,12.80
2023-03-23T13:20:24.236Z,12.80
2023-03-23T13:21:28.633Z,12.84
2023-03-23T13:22:32.889Z,12.87
2023-03-23T13:23:37.193Z,12.90
2023-03-23T13:24:41.605Z,12.93
2023-03-23T13:25:45.877Z,13.00
2023-03-23T13:26:50.311Z,13.02
2023-03-23T13:27:54.611Z,13.03
2023-03-23T13:28:58.918Z,12.98
2023-03-23T13:30:03.196Z,12.98
2023-03-23T13:31:07.602Z,12.97
2023-03-23T13:32:11.951Z,12.94
2023-03-23T13:33:16.215Z,12.98
2023-03-23T13:34:20.590Z,12.98
2023-03-23T13:35:24.868Z,13.01
2023-03-23T13:36:29.138Z,13.04
2023-03-23T13:37:33.576Z,13.06
2023-03-23T13:38:37.911Z,13.01
2023-03-23T13:39:42.210Z,13.07
2023-03-23T13:40:46.574Z,13.09
2023-03-23T13:41:50.809Z,13.09
2023-03-23T13:42:55.155Z,13.13
2023-03-23T13:43:59.437Z,13.17
2023-03-23T13:45:03.863Z,13.12
2023-03-23T13:46:08.212Z,13.11
2023-03-23T13:47:12.449Z,13.10
2023-03-23T13:48:16.728Z,13.00
2023-03-23T13:49:21.002Z,12.98
2023-03-23T13:50:25.407Z,12.99
2023-03-23T13:51:29.640Z,13.00
2023-03-23T13:52:33.952Z,13.01